createdAt,value
2023-01-17T00:04:57.953Z,97635.94
2023-01-17T00:10:02.275Z,97631.50
2023-01-17T00:15:07.403Z,97628.28
2023-01-17T00:20:14.188Z,97611.53
2023-01-17T00:25:18.669Z,97620.53
2023-01-17T00:30:22.474Z,97612.06
2023-01-17T00:35:26.464Z,97615.06
2023-01-17T00:40:28.616Z,97605.53
2023-01-17T00:45:32.053Z,97605.13
2023-01-17T00:50:36.432Z,97601.91
2023-01-17T00:55:38.527Z,97603.34
2023-01-17T01:00:42.259Z,97604.41
2023-01-17T01:05:44.446Z,97599.66
2023-01-17T01:10:48.435Z,97608.16
2023-01-17T01:15:52.443Z,97593.84
2023-01-17T01:20:54.585Z,97605.84
2023-01-17T01:25:56.944Z,97595.47
2023-01-17T01:31:01.361Z,97594.44
2023-01-17T01:36:03.521Z,97588.28
2023-01-17T01:41:06.452Z,97583.59
2023-01-17T01:46:13.127Z,97587.13
2023-01-17T01:51:19.757Z,97568.06
2023-01-17T01:56:23.506Z,97577.53
2023-01-17T02:01:27.435Z,97571.22
2023-01-17T02:06:34.183Z,97570.03
2023-01-17T02:11:37.923Z,97573.94
2023-01-17T02:16:58.695Z,97570.50
2023-01-17T02:22:23.220Z,97569.63
2023-01-17T02:27:27.492Z,97565.72
2023-01-17T02:32:45.509Z,97572.25
2023-01-17T02:37:58.139Z,97558.69
2023-01-17T02:43:07.886Z,97571.06
2023-01-17T02:48:14.004Z,97576.53
2023-01-17T02:53:30.363Z,97573.25
2023-01-17T02:58:50.423Z,97576.38
2023-01-17T03:03:58.953Z,97577.34
2023-01-17T03:09:02.652Z,97576.59
2023-01-17T03:14:04.819Z,97575.84
2023-01-17T03:19:08.236Z,97574.13
2023-01-17T03:24:11.758Z,97572.75
2023-01-17T03:29:14.092Z,97575.56
2023-01-17T03:34:17.561Z,97565.94
2023-01-17T03:39:19.210Z,97573.47
2023-01-17T03:44:21.339Z,97576.50
2023-01-17T03:49:25.315Z,97579.28
2023-01-17T03:54:27.463Z,97581.69
2023-01-17T03:59:29.518Z,97585.72
2023-01-17T04:04:33.468Z,97595.25
2023-01-17T04:09:35.833Z,97588.22
2023-01-17T04:14:37.940Z,97607.34
2023-01-17T04:19:41.623Z,97601.75
2023-01-17T04:24:43.518Z,97617.94
2023-01-17T04:29:46.846Z,97616.69
2023-01-17T04:34:50.240Z,97627.25
2023-01-17T04:39:52.308Z,97624.63
2023-01-17T04:44:54.440Z,97622.06
2023-01-17T04:49:57.871Z,97644.78
2023-01-17T04:55:00.030Z,97643.06
2023-01-17T05:00:01.925Z,97655.41
2023-01-17T05:05:09.183Z,97662.50
2023-01-17T05:10:11.323Z,97681.69
2023-01-17T05:15:13.503Z,97681.44
2023-01-17T05:20:17.385Z,97695.72
2023-01-17T05:25:19.228Z,97696.69
2023-01-17T05:30:22.459Z,97710.84
2023-01-17T05:35:28.163Z,97719.69
2023-01-17T05:40:31.622Z,97720.78
2023-01-17T05:45:33.990Z,97718.38
2023-01-17T05:50:38.415Z,97728.13
2023-01-17T05:55:41.474Z,97747.63
2023-01-17T06:00:43.975Z,97755.63
2023-01-17T06:05:48.556Z,97771.44
2023-01-17T06:10:50.703Z,97777.66
2023-01-17T06:15:52.873Z,97779.47
2023-01-17T06:20:56.660Z,97784.84
2023-01-17T06:26:02.744Z,97784.66
2023-01-17T06:31:08.591Z,97786.53
2023-01-17T06:36:12.161Z,97785.69
2023-01-17T06:41:13.905Z,97786.84
2023-01-17T06:46:15.736Z,97799.28
2023-01-17T06:51:19.272Z,97806.22
2023-01-17T06:56:21.473Z,97813.09
2023-01-17T07:01:24.168Z,97831.59
2023-01-17T07:06:27.331Z,97835.06
2023-01-17T07:11:30.341Z,97831.78
2023-01-17T07:16:34.326Z,97838.91
2023-01-17T07:21:37.876Z,97854.06
2023-01-17T07:26:40.077Z,97856.28
2023-01-17T07:31:42.667Z,97852.25
2023-01-17T07:36:46.264Z,97853.28
2023-01-17T07:41:48.625Z,97864.31
2023-01-17T07:46:51.219Z,97875.06
2023-01-17T07:51:54.497Z,97873.91
2023-01-17T07:56:56.294Z,97888.00
2023-01-17T08:01:58.893Z,97882.47
2023-01-17T08:07:02.669Z,97877.00
2023-01-17T08:12:05.230Z,97889.31
2023-01-17T08:17:07.602Z,97888.31
2023-01-17T08:22:11.607Z,97901.19
2023-01-17T08:27:14.074Z,97897.00
2023-01-17T08:32:16.162Z,97894.19
2023-01-17T08:37:19.776Z,97905.59
2023-01-17T08:42:21.630Z,97909.94
2023-01-17T08:47:23.599Z,97923.44
2023-01-17T08:52:27.163Z,97932.34
2023-01-17T08:57:29.395Z,97930.13
2023-01-17T09:02:31.597Z,97942.34
2023-01-17T09:07:34.995Z,97948.38
2023-01-17T09:12:37.189Z,97961.44
2023-01-17T09:17:39.115Z,97974.66
2023-01-17T09:22:42.271Z,97975.81
2023-01-17T09:27:45.783Z,98002.81
2023-01-17T09:32:52.923Z,98005.38
2023-01-17T09:37:57.350Z,98020.28
2023-01-17T09:43:03.041Z,98027.00
2023-01-17T09:48:10.442Z,98025.81
2023-01-17T09:53:16.912Z,98052.81
2023-01-17T09:58:23.274Z,98058.16
2023-01-17T10:03:59.099Z,98067.69
2023-01-17T10:09:32.985Z,98081.91
2023-01-17T10:14:48.134Z,98088.38
2023-01-17T10:20:03.325Z,98099.75
2023-01-17T10:25:16.041Z,98100.47
2023-01-17T10:30:23.200Z,98105.09
2023-01-17T10:35:30.764Z,98108.63
2023-01-17T10:40:41.676Z,98109.63
2023-01-17T10:45:52.088Z,98126.63
2023-01-17T10:51:01.971Z,98131.78
2023-01-17T10:56:07.306Z,98137.03
2023-01-17T11:01:18.340Z,98139.50
2023-01-17T11:06:22.747Z,98151.91
2023-01-17T11:11:29.434Z,98150.09
2023-01-17T11:16:32.250Z,98154.97
2023-01-17T11:21:36.477Z,98151.25
2023-01-17T11:26:46.432Z,98153.69
2023-01-17T11:31:48.503Z,98160.47
2023-01-17T11:37:09.034Z,98170.19
2023-01-17T11:42:32.849Z,98161.41
2023-01-17T11:47:34.949Z,98174.88
2023-01-17T11:52:37.385Z,98171.09
2023-01-17T11:57:40.990Z,98178.34
2023-01-17T12:03:10.697Z,98170.84
2023-01-17T12:08:21.980Z,98178.72
2023-01-17T12:13:39.873Z,98173.06
2023-01-17T12:18:49.479Z,98175.88
2023-01-17T12:24:39.358Z,98188.94
2023-01-17T12:29:50.103Z,98193.50
2023-01-17T12:35:00.016Z,98196.34
2023-01-17T12:40:10.454Z,98199.69
2023-01-17T12:45:18.602Z,98219.19
2023-01-17T12:50:26.756Z,98228.06
2023-01-17T12:55:36.296Z,98227.28
2023-01-17T13:00:40.115Z,98235.19
2023-01-17T13:05:45.576Z,98231.50
2023-01-17T13:10:52.575Z,98227.59
2023-01-17T13:15:59.828Z,98235.72
2023-01-17T13:21:27.487Z,98237.31
2023-01-17T13:26:43.786Z,98248.66
2023-01-17T13:31:49.406Z,98250.50
2023-01-17T13:37:11.443Z,98268.03
2023-01-17T13:42:25.297Z,98275.31
2023-01-17T13:47:41.365Z,98284.94
2023-01-17T13:52:43.138Z,98266.25
2023-01-17T13:57:45.555Z,98282.84
2023-01-17T14:02:50.001Z,98283.56
2023-01-17T14:07:57.522Z,98303.09
2023-01-17T14:12:59.871Z,98312.53
2023-01-17T14:18:05.276Z,98321.28
2023-01-17T14:23:24.112Z,98321.88
2023-01-17T14:28:31.150Z,98337.75
2023-01-17T14:33:38.475Z,98354.13
2023-01-17T14:38:42.886Z,98351.91
2023-01-17T14:43:47.183Z,98364.78
2023-01-17T14:48:51.421Z,98363.56
2023-01-17T14:53:55.758Z,98369.44
2023-01-17T14:59:06.038Z,98377.13
2023-01-17T15:04:23.547Z,98369.69
2023-01-17T15:09:28.943Z,98382.41
2023-01-17T15:14:36.112Z,98381.94
2023-01-17T15:19:44.497Z,98378.03
2023-01-17T15:24:47.851Z,98381.94
2023-01-17T15:29:50.182Z,98405.03
2023-01-17T15:34:53.933Z,98401.09
2023-01-17T15:40:07.399Z,98417.03
2023-01-17T15:45:15.103Z,98417.25
2023-01-17T15:50:30.686Z,98414.13
2023-01-17T15:55:35.165Z,98409.19
2023-01-17T16:00:38.980Z,98415.63
2023-01-17T16:05:42.681Z,98422.84
2023-01-17T16:10:45.709Z,98428.25
2023-01-17T16:15:47.877Z,98423.19
2023-01-17T16:20:56.792Z,98436.34
2023-01-17T16:25:59.046Z,98436.59
2023-01-17T16:31:01.094Z,98423.72
2023-01-17T16:36:05.376Z,98440.38
2023-01-17T16:41:07.175Z,98436.06
2023-01-17T16:46:11.514Z,98446.69
2023-01-17T16:51:14.865Z,98440.72
2023-01-17T16:56:18.605Z,98441.53
2023-01-17T17:01:20.875Z,98450.25
2023-01-17T17:06:24.552Z,98453.84
2023-01-17T17:11:26.707Z,98451.25
2023-01-17T17:16:30.542Z,98457.34
2023-01-17T17:21:35.485Z,98463.50
2023-01-17T17:26:37.637Z,98470.47
2023-01-17T17:31:41.578Z,98480.09
2023-01-17T17:36:45.517Z,98486.19
2023-01-17T17:41:47.727Z,98488.81
2023-01-17T17:46:49.746Z,98500.13
2023-01-17T17:51:53.619Z,98512.28
2023-01-17T17:56:55.451Z,98501.88
2023-01-17T18:01:57.729Z,98507.06
2023-01-17T18:07:01.371Z,98496.66
2023-01-17T18:12:04.413Z,98506.22
2023-01-17T18:17:06.626Z,98507.97
2023-01-17T18:22:10.019Z,98500.13
2023-01-17T18:27:12.222Z,98502.75
2023-01-17T18:32:14.066Z,98519.16
2023-01-17T18:37:17.097Z,98505.31
2023-01-17T18:42:20.035Z,98515.69
2023-01-17T18:47:23.168Z,98511.34
2023-01-17T18:52:26.287Z,98525.22
2023-01-17T18:57:28.001Z,98510.44
2023-01-17T19:02:30.171Z,98517.38
2023-01-17T19:07:34.297Z,98526.88
2023-01-17T19:12:36.022Z,98524.25
2023-01-17T19:17:38.142Z,98517.41
2023-01-17T19:22:41.696Z,98535.69
2023-01-17T19:27:43.906Z,98537.34
2023-01-17T19:32:46.576Z,98535.69
2023-01-17T19:37:51.573Z,98541.72
2023-01-17T19:42:53.960Z,98539.97
2023-01-17T19:47:56.222Z,98554.75
2023-01-17T19:52:59.500Z,98553.88
2023-01-17T19:58:01.333Z,98554.72
2023-01-17T20:03:03.224Z,98552.97
2023-01-17T20:08:06.688Z,98557.25
2023-01-17T20:13:09.348Z,98550.31
2023-01-17T20:18:11.577Z,98553.72
2023-01-17T20:23:15.004Z,98556.28
2023-01-17T20:28:16.843Z,98550.22
2023-01-17T20:33:18.967Z,98550.28
2023-01-17T20:38:22.772Z,98567.56
2023-01-17T20:43:24.638Z,98574.47
2023-01-17T20:48:26.976Z,98576.16
2023-01-17T20:53:30.438Z,98583.78
2023-01-17T20:58:32.700Z,98604.56
2023-01-17T21:03:37.404Z,98630.56
2023-01-17T21:08:42.718Z,98638.31
2023-01-17T21:13:45.160Z,98652.19
2023-01-17T21:18:48.080Z,98655.50
2023-01-17T21:23:53.062Z,98658.94
2023-01-17T21:28:56.028Z,98665.84
2023-01-17T21:34:00.413Z,98661.41
2023-01-17T21:39:06.305Z,98675.31
2023-01-17T21:44:13.121Z,98680.31
2023-01-17T21:49:15.642Z,98692.47
2023-01-17T21:54:18.739Z,98680.19
2023-01-17T21:59:20.819Z,98691.59
2023-01-17T22:04:22.976Z,98687.13
2023-01-17T22:09:26.153Z,98690.59
2023-01-17T22:14:28.202Z,98702.72
2023-01-17T22:19:30.162Z,98701.69
2023-01-17T22:24:33.638Z,98703.44
2023-01-17T22:29:35.655Z,98710.22
2023-01-17T22:34:37.736Z,98706.69
2023-01-17T22:39:41.574Z,98696.38
2023-01-17T22:44:43.877Z,98698.78
2023-01-17T22:49:45.816Z,98684.97
2023-01-17T22:54:49.403Z,98687.50
2023-01-17T22:59:51.493Z,98686.50
2023-01-17T23:04:53.609Z,98676.03
2023-01-17T23:09:56.987Z,98671.72
2023-01-17T23:14:59.087Z,98677.03
2023-01-17T23:20:01.126Z,98673.59
2023-01-17T23:25:07.592Z,98663.06
2023-01-17T23:30:11.648Z,98656.00
2023-01-17T23:35:13.960Z,98654.31
2023-01-17T23:40:18.413Z,98650.13
2023-01-17T23:45:20.486Z,98639.47
2023-01-17T23:50:22.815Z,98625.66
2023-01-17T23:55:26.048Z,98618.88
